Time;durP1;ratioP1;P1;durP2;ratioP2;P2;SDS_P1;SDS_P2;PMS_P1;PMS_P2;Temp;Humidity;BMP_temperature;BMP_pressure;BME280_temperature;BME280_humidity;BME280_pressure;Samples;Min_cycle;Max_cycle;Signal;HPM_P1;HPM_P2
2022/09/05 00:00:18;;;;;;;6.72;2.40;;;20.40;71.20;;;;;;5078592;28;20128;-66
2022/09/05 00:03:05;;;;;;;5.50;2.35;;;20.30;70.20;;;;;;5082071;28;20091;-66
2022/09/05 00:05:52;;;;;;;5.53;2.47;;;20.30;71.60;;;;;;5054414;28;20045;-67
2022/09/05 00:08:42;;;;;;;4.82;2.47;;;21.20;71.50;;;;;;5070443;28;20513;-67
2022/09/05 00:11:16;;;;;;;5.07;2.85;;;20.20;71.70;;;;;;5071278;28;20585;-66
2022/09/05 00:13:48;;;;;;;4.50;2.40;;;20.10;71.20;;;;;;5054320;28;20059;-66
2022/09/05 00:16:20;;;;;;;4.80;2.50;;;20.10;71.10;;;;;;5078355;28;20040;-67
2022/09/05 00:19:10;;;;;;;4.72;2.60;;;20.00;71.40;;;;;;5061587;28;20131;-66
2022/09/05 00:21:39;;;;;;;4.93;2.58;;;20.00;72.20;;;;;;5073217;28;20040;-66
2022/09/05 00:24:29;;;;;;;6.85;2.90;;;19.90;71.70;;;;;;5054232;28;20561;-66
2022/09/05 00:27:20;;;;;;;4.70;2.35;;;19.90;72.80;;;;;;5070591;28;20056;-66
2022/09/05 00:30:05;;;;;;;5.43;2.78;;;19.80;72.80;;;;;;5083370;28;20402;-66
2022/09/05 00:32:31;;;;;;;4.38;2.75;;;19.80;72.20;;;;;;5065040;28;20131;-67
2022/09/05 00:35:08;;;;;;;;;;;19.80;72.20;;;;;;5088026;28;20128;-72
2022/09/05 00:37:39;;;;;;;4.78;2.33;;;19.80;74.10;;;;;;5066841;28;19920;-66
2022/09/05 00:40:28;;;;;;;3.30;2.30;;;19.80;72.20;;;;;;5072751;28;20140;-66
2022/09/05 00:43:26;;;;;;;4.63;2.40;;;19.80;73.40;;;;;;5071386;28;20515;-67
2022/09/05 00:45:54;;;;;;;;;;;19.70;72.50;;;;;;5069632;28;20088;-66
2022/09/05 00:48:29;;;;;;;6.28;2.80;;;19.70;74.20;;;;;;5077847;28;19920;-66
2022/09/05 00:51:11;;;;;;;12.60;2.75;;;19.70;72.70;;;;;;5065216;28;20083;-66
2022/09/05 00:54:10;;;;;;;5.13;2.53;;;19.70;72.70;;;;;;5090575;28;20060;-66
2022/09/05 00:56:54;;;;;;;5.43;2.47;;;19.60;73.40;;;;;;5064755;28;20044;-66
2022/09/05 00:59:57;;;;;;;4.78;2.63;;;19.60;72.90;;;;;;5053131;28;20058;-66
2022/09/05 01:02:41;;;;;;;5.45;2.55;;;19.60;74.00;;;;;;5069963;28;20052;-69
2022/09/05 01:05:35;;;;;;;5.65;2.95;;;19.50;74.20;;;;;;5070398;28;20157;-71
2022/09/05 01:08:26;;;;;;;10.00;3.03;;;19.60;74.60;;;;;;5070665;28;20155;-73
2022/09/05 01:11:31;;;;;;;8.60;3.20;;;19.60;74.30;;;;;;5034177;28;20067;-66
2022/09/05 01:14:06;;;;;;;4.75;2.78;;;19.50;74.50;;;;;;5035124;28;20547;-66
2022/09/05 01:16:52;;;;;;;8.13;3.33;;;19.50;73.60;;;;;;5052292;28;20052;-66
2022/09/05 01:19:45;;;;;;;5.25;2.97;;;19.50;74.10;;;;;;5086123;28;20122;-67
2022/09/05 01:22:52;;;;;;;4.78;2.67;;;19.50;74.20;;;;;;5069342;28;20052;-67
2022/09/05 01:25:30;;;;;;;5.10;2.65;;;19.50;75.00;;;;;;5081444;28;20063;-69
2022/09/05 01:28:23;;;;;;;4.22;2.53;;;19.50;74.80;;;;;;5091126;28;20132;-67
2022/09/05 01:30:56;;;;;;;5.25;2.63;;;19.40;74.70;;;;;;5106216;28;20048;-67
2022/09/05 01:33:46;;;;;;;4.28;2.70;;;19.40;74.20;;;;;;5081983;28;20179;-66
2022/09/05 01:36:36;;;;;;;5.20;2.80;;;19.40;75.50;;;;;;5070346;28;20389;-66
2022/09/05 01:39:42;;;;;;;5.22;2.80;;;19.30;75.00;;;;;;5069957;28;20147;-73
2022/09/05 01:42:28;;;;;;;4.25;2.67;;;19.40;74.70;;;;;;5027232;28;20067;-66
2022/09/05 01:44:57;;;;;;;6.25;3.03;;;19.30;75.90;;;;;;5011929;28;20521;-66
2022/09/05 01:47:44;;;;;;;5.93;2.72;;;19.30;75.00;;;;;;5048257;28;20149;-69
2022/09/05 01:50:33;;;;;;;6.22;3.30;;;19.20;75.20;;;;;;5090352;28;20048;-66
2022/09/05 01:53:24;;;;;;;8.52;3.08;;;19.20;75.20;;;;;;5090550;28;20048;-67
2022/09/05 01:56:28;;;;;;;10.27;3.13;;;19.20;75.80;;;;;;5090921;28;20048;-66
2022/09/05 01:59:13;;;;;;;5.15;2.90;;;19.10;76.60;;;;;;5073861;28;20082;-67
2022/09/05 02:02:09;;;;;;;8.52;3.05;;;19.10;76.50;;;;;;5070382;28;20048;-66
2022/09/05 02:04:56;;;;;;;5.65;3.03;;;19.10;76.60;;;;;;5070284;28;20055;-66
2022/09/05 02:07:40;;;;;;;4.35;3.03;;;19.00;76.80;;;;;;5068760;28;20053;-66
2022/09/05 02:10:39;;;;;;;6.63;3.10;;;19.00;76.20;;;;;;5087139;28;20059;-73
2022/09/05 02:13:35;;;;;;;5.80;2.92;;;18.90;77.50;;;;;;5078683;28;20052;-73
2022/09/05 02:16:37;;;;;;;6.07;3.70;;;18.90;77.00;;;;;;5105779;28;20397;-66
2022/09/05 02:19:09;;;;;;;5.68;3.28;;;18.90;77.30;;;;;;5105024;28;20221;-66
2022/09/05 02:21:53;;;;;;;6.20;3.20;;;18.80;76.50;;;;;;5082581;28;20126;-67
2022/09/05 02:24:41;;;;;;;8.40;2.83;;;18.80;76.70;;;;;;5072467;28;20048;-67
2022/09/05 02:27:40;;;;;;;8.68;3.33;;;18.80;78.20;;;;;;5055982;28;20128;-73
2022/09/05 02:30:08;;;;;;;5.75;3.13;;;18.80;77.80;;;;;;5056003;28;20061;-73
2022/09/05 02:33:03;;;;;;;7.90;3.30;;;18.70;77.20;;;;;;5055550;28;20096;-67
2022/09/05 02:35:53;;;;;;;4.75;2.80;;;18.70;78.80;;;;;;5002909;28;20061;-67
2022/09/05 02:38:21;;;;;;;6.90;3.15;;;18.60;78.10;;;;;;5073424;28;20436;-68
2022/09/05 02:41:01;;;;;;;5.80;3.20;;;18.50;77.80;;;;;;5093723;28;20477;-66
2022/09/05 02:43:47;;;;;;;7.57;3.60;;;18.40;78.60;;;;;;5093190;28;20106;-67
2022/09/05 02:46:31;;;;;;;6.40;3.40;;;18.40;78.80;;;;;;5092403;28;20070;-69
2022/09/05 02:49:17;;;;;;;6.97;3.38;;;18.40;79.20;;;;;;5077248;28;20512;-66
2022/09/05 02:51:59;;;;;;;6.88;3.45;;;18.40;79.20;;;;;;5072571;28;20048;-66
2022/09/05 02:54:30;;;;;;;6.97;3.42;;;18.40;78.70;;;;;;5088045;28;20135;-67
2022/09/05 02:57:21;;;;;;;6.20;3.28;;;18.40;78.90;;;;;;5073552;28;20076;-66
2022/09/05 02:59:52;;;;;;;5.40;3.05;;;18.30;80.40;;;;;;5073644;28;20458;-67
2022/09/05 03:02:50;;;;;;;6.38;3.17;;;18.30;79.00;;;;;;5072025;28;20124;-69
2022/09/05 03:05:35;;;;;;;6.60;3.22;;;18.30;80.30;;;;;;5054665;28;20060;-67
2022/09/05 03:08:15;;;;;;;5.53;3.38;;;18.30;80.00;;;;;;5055385;28;20056;-66
2022/09/05 03:11:10;;;;;;;7.18;3.45;;;18.20;80.00;;;;;;5089980;28;20055;-67
2022/09/05 03:13:55;;;;;;;6.70;3.47;;;18.20;80.60;;;;;;5073218;28;20128;-67
2022/09/05 03:16:23;;;;;;;5.72;3.50;;;18.20;79.70;;;;;;5070262;28;20048;-67
2022/09/05 03:19:10;;;;;;;6.95;3.42;;;18.20;80.00;;;;;;5079813;28;20121;-66
2022/09/05 03:21:58;;;;;;;6.18;3.28;;;18.10;80.10;;;;;;5109377;28;20051;-69
2022/09/05 03:24:39;;;;;;;5.32;3.45;;;18.10;81.00;;;;;;5107976;28;20056;-67
2022/09/05 03:27:19;;;;;;;7.45;4.00;;;18.10;81.20;;;;;;5109254;28;20089;-67
2022/09/05 03:29:53;;;;;;;6.35;3.40;;;18.00;80.50;;;;;;5109223;28;20052;-66
2022/09/05 03:32:47;;;;;;;6.65;3.58;;;18.00;80.70;;;;;;5073789;28;20048;-67
2022/09/05 03:35:19;;;;;;;6.03;3.60;;;18.00;81.90;;;;;;5090591;28;20044;-67
2022/09/05 03:38:06;;;;;;;7.85;4.25;;;17.90;80.90;;;;;;5108293;28;20081;-66
2022/09/05 03:40:44;;;;;;;;;;;17.90;81.10;;;;;;5079580;28;20635;-68
2022/09/05 03:43:42;;;;;;;8.90;3.92;;;17.90;83.60;;;;;;5072854;28;19924;-67
2022/09/05 03:46:45;;;;;;;6.28;3.70;;;17.90;82.80;;;;;;5092119;28;20048;-68
2022/09/05 03:49:48;;;;;;;6.18;3.83;;;17.90;82.30;;;;;;5074260;28;20092;-67
2022/09/05 03:52:49;;;;;;;6.22;3.50;;;17.80;82.40;;;;;;5092511;28;20051;-71
2022/09/05 03:55:38;;;;;;;8.52;3.83;;;17.80;82.30;;;;;;5050399;28;20048;-68
2022/09/05 03:58:23;;;;;;;6.40;3.60;;;17.70;82.00;;;;;;5083485;28;20139;-66
2022/09/05 04:01:34;;;;;;;7.63;4.10;;;17.70;82.70;;;;;;5091859;28;20071;-67
2022/09/05 04:04:19;;;;;;;6.80;4.00;;;17.70;83.50;;;;;;5013138;28;20061;-67
2022/09/05 04:06:53;;;;;;;8.70;4.05;;;17.70;83.30;;;;;;5004251;28;20086;-67
2022/09/05 04:09:22;;;;;;;6.78;4.07;;;17.60;82.70;;;;;;5052466;28;20106;-66
2022/09/05 04:11:56;;;;;;;7.30;4.05;;;17.60;82.70;;;;;;5087626;28;20547;-66
2022/09/05 04:14:45;;;;;;;7.00;3.55;;;17.60;83.10;;;;;;5073272;28;20056;-67
2022/09/05 04:17:32;;;;;;;6.53;4.13;;;17.60;84.20;;;;;;5087655;28;20108;-66
2022/09/05 04:20:09;;;;;;;8.13;4.05;;;17.60;83.70;;;;;;5071947;28;20059;-66
2022/09/05 04:22:57;;;;;;;8.38;4.25;;;17.60;83.50;;;;;;5071611;28;20055;-67
2022/09/05 04:25:47;;;;;;;6.90;3.42;;;17.50;84.60;;;;;;5076047;28;20044;-67
2022/09/05 04:28:31;;;;;;;8.95;4.40;;;17.50;83.90;;;;;;5091190;28;20477;-69
2022/09/05 04:31:07;;;;;;;9.43;4.10;;;17.50;85.30;;;;;;5107217;28;20067;-66
2022/09/05 04:33:45;;;;;;;9.55;4.03;;;17.50;84.30;;;;;;5085006;28;20048;-68
2022/09/05 04:36:22;;;;;;;9.90;4.20;;;17.40;84.50;;;;;;5071736;28;20119;-67
2022/09/05 04:39:16;;;;;;;7.05;4.18;;;17.40;85.30;;;;;;5082705;28;20043;-67
2022/09/05 04:42:04;;;;;;;6.90;3.80;;;17.40;86.30;;;;;;5071066;28;20482;-66
2022/09/05 04:44:36;;;;;;;8.70;4.18;;;17.40;86.70;;;;;;5071056;28;20057;-66
2022/09/05 04:47:13;;;;;;;7.50;3.95;;;17.30;86.00;;;;;;5070090;28;20044;-66
2022/09/05 04:50:14;;;;;;;9.50;4.32;;;17.30;86.00;;;;;;5053098;28;20122;-67
2022/09/05 04:52:56;;;;;;;9.13;4.43;;;17.30;87.20;;;;;;5050565;28;20060;-68
2022/09/05 04:55:44;;;;;;;8.73;4.60;;;17.30;86.20;;;;;;5067152;28;20048;-66
2022/09/05 04:58:24;;;;;;;7.88;4.40;;;17.30;87.00;;;;;;5073701;28;20056;-66
2022/09/05 05:00:58;;;;;;;7.18;4.22;;;17.20;87.10;;;;;;5090862;28;20044;-66
2022/09/05 05:03:29;;;;;;;9.50;4.07;;;17.20;87.00;;;;;;5089370;28;20056;-67
2022/09/05 05:05:59;;;;;;;7.55;4.35;;;17.20;86.90;;;;;;5084196;28;20098;-66
2022/09/05 05:08:50;;;;;;;6.10;3.90;;;17.20;87.20;;;;;;5069743;28;20569;-66
2022/09/05 05:11:42;;;;;;;10.15;4.10;;;17.20;88.80;;;;;;5086906;28;20055;-66
2022/09/05 05:14:32;;;;;;;8.40;4.30;;;17.20;89.20;;;;;;5067773;28;20057;-67
2022/09/05 05:17:26;;;;;;;7.60;4.53;;;17.20;88.20;;;;;;5087400;28;20050;-66
2022/09/05 05:20:14;;;;;;;7.22;4.55;;;17.20;89.10;;;;;;5091131;28;20047;-66
2022/09/05 05:23:01;;;;;;;8.55;4.43;;;17.20;88.20;;;;;;5090552;28;20051;-70
2022/09/05 05:25:28;;;;;;;7.30;4.43;;;17.10;88.30;;;;;;5090069;28;20047;-66
2022/09/05 05:28:21;;;;;;;7.63;4.30;;;17.20;88.50;;;;;;5083776;28;20139;-66
2022/09/05 05:30:47;;;;;;;7.72;4.10;;;17.10;89.60;;;;;;5071464;28;20067;-66
2022/09/05 05:33:26;;;;;;;7.45;4.57;;;17.20;89.00;;;;;;5104762;28;20532;-66
2022/09/05 05:35:53;;;;;;;7.07;4.40;;;17.20;90.00;;;;;;5073361;28;20089;-66
2022/09/05 05:38:26;;;;;;;8.65;4.68;;;17.20;89.80;;;;;;5089519;28;20560;-67
2022/09/05 05:41:03;;;;;;;7.60;4.38;;;17.20;90.00;;;;;;5090571;28;20056;-67
2022/09/05 05:43:37;;;;;;;10.07;4.55;;;17.20;90.00;;;;;;5090368;28;20092;-69
2022/09/05 05:46:03;;;;;;;7.82;4.30;;;17.20;90.30;;;;;;5090057;28;20521;-67
2022/09/05 05:48:39;;;;;;;8.80;4.32;;;17.30;90.20;;;;;;5090053;28;20464;-67
2022/09/05 05:51:22;;;;;;;9.55;4.38;;;17.30;90.30;;;;;;5090980;28;20052;-67
2022/09/05 05:53:57;;;;;;;7.57;4.85;;;17.30;90.60;;;;;;5105630;28;20078;-66
2022/09/05 05:56:45;;;;;;;11.13;4.93;;;17.40;90.40;;;;;;5090773;28;20055;-73
2022/09/05 05:59:25;;;;;;;10.85;4.93;;;17.40;90.70;;;;;;5095046;28;20048;-67
2022/09/05 06:01:57;;;;;;;7.72;4.53;;;17.40;90.40;;;;;;5109257;28;20055;-69
2022/09/05 06:04:49;;;;;;;7.20;4.07;;;17.50;90.50;;;;;;5074403;28;20450;-73
2022/09/05 06:07:29;;;;;;;13.32;4.53;;;17.50;90.60;;;;;;5073978;28;20490;-67
2022/09/05 06:10:23;;;;;;;9.25;4.80;;;17.50;90.70;;;;;;5082443;28;20040;-66
2022/09/05 06:13:06;;;;;;;12.45;4.75;;;17.60;91.10;;;;;;5094191;28;20048;-67
2022/09/05 06:16:04;;;;;;;8.95;4.75;;;17.60;90.70;;;;;;5075152;28;20476;-67
2022/09/05 06:18:48;;;;;;;7.40;4.72;;;17.60;90.90;;;;;;5037631;28;20536;-68
2022/09/05 06:21:28;;;;;;;11.02;4.93;;;17.70;91.10;;;;;;5084047;28;20056;-66
2022/09/05 06:24:46;;;;;;;11.77;4.78;;;17.70;91.20;;;;;;5066885;28;20056;-67
2022/09/05 06:27:51;;;;;;;9.23;4.30;;;17.80;91.20;;;;;;5031480;28;20059;-64
2022/09/05 06:30:21;;;;;;;8.93;4.70;;;17.90;91.40;;;;;;5015211;28;20054;-70
2022/09/05 06:33:02;;;;;;;10.18;4.57;;;18.00;90.70;;;;;;5062980;28;20075;-69
2022/09/05 06:35:51;;;;;;;8.70;4.57;;;18.10;90.90;;;;;;5074299;28;20051;-67
2022/09/05 06:38:47;;;;;;;7.05;4.25;;;18.20;90.80;;;;;;5081532;28;20386;-67
2022/09/05 06:41:42;;;;;;;9.63;4.45;;;18.30;91.20;;;;;;5091691;28;20058;-69
2022/09/05 06:44:36;;;;;;;8.07;4.93;;;18.40;91.00;;;;;;5088239;28;20169;-71
2022/09/05 06:47:09;;;;;;;8.00;4.90;;;18.50;90.80;;;;;;5055093;28;20040;-66
2022/09/05 06:49:57;;;;;;;10.18;4.65;;;18.50;90.50;;;;;;5065361;28;20516;-68
2022/09/05 06:52:59;;;;;;;9.13;4.68;;;18.70;90.50;;;;;;5071945;28;20063;-67
2022/09/05 06:56:05;;;;;;;9.07;4.47;;;18.80;90.90;;;;;;5080182;28;20432;-68
2022/09/05 06:59:00;;;;;;;10.68;4.50;;;18.90;90.80;;;;;;5064367;28;20056;-67
2022/09/05 07:01:32;;;;;;;10.90;5.00;;;19.00;90.80;;;;;;5045727;28;20057;-79
2022/09/05 07:04:31;;;;;;;9.02;4.63;;;19.10;90.50;;;;;;5085894;28;20489;-67
2022/09/05 07:07:21;;;;;;;9.65;4.65;;;19.20;90.70;;;;;;5071502;28;20048;-68
2022/09/05 07:09:58;;;;;;;10.95;5.20;;;19.30;90.70;;;;;;5066763;28;20081;-68
2022/09/05 07:12:36;;;;;;;8.63;4.43;;;19.40;90.40;;;;;;5080733;28;20044;-68
2022/09/05 07:15:31;;;;;;;9.38;4.55;;;19.50;90.20;;;;;;5078971;28;20485;-68
2022/09/05 07:18:08;;;;;;;9.68;4.65;;;19.50;90.10;;;;;;5079591;28;20048;-70
2022/09/05 07:20:54;;;;;;;;;;;19.60;90.10;;;;;;5075880;28;20053;-70
2022/09/05 07:23:29;;;;;;;7.95;4.53;;;19.70;90.20;;;;;;5100644;28;20287;-71
2022/09/05 07:25:55;;;;;;;7.95;4.75;;;19.90;89.60;;;;;;5071720;28;20127;-70
2022/09/05 07:28:21;;;;;;;7.90;4.38;;;19.90;89.00;;;;;;5054678;28;20436;-70
2022/09/05 07:31:02;;;;;;;8.90;4.50;;;20.00;89.20;;;;;;5074015;28;20040;-70
2022/09/05 07:33:30;;;;;;;8.98;4.72;;;20.10;89.30;;;;;;5061523;28;20051;-69
2022/09/05 07:36:07;;;;;;;8.88;4.80;;;20.20;88.70;;;;;;5076219;28;20057;-69
2022/09/05 07:38:36;;;;;;;7.18;4.75;;;20.30;88.60;;;;;;5071192;28;20485;-70
2022/09/05 07:41:26;;;;;;;8.93;5.40;;;20.30;88.40;;;;;;5072277;28;20049;-70
2022/09/05 07:44:02;;;;;;;9.23;4.70;;;20.40;88.50;;;;;;5063984;28;20752;-70
2022/09/05 07:46:35;;;;;;;7.40;4.13;;;20.50;88.20;;;;;;5071644;28;20040;-69
2022/09/05 07:49:05;;;;;;;7.40;4.47;;;20.70;88.00;;;;;;5054634;28;20052;-72
2022/09/05 07:51:34;;;;;;;8.40;4.30;;;20.70;87.60;;;;;;5072364;28;20037;-74
2022/09/05 07:54:17;;;;;;;9.35;4.65;;;20.80;87.70;;;;;;5048355;28;20153;-72
2022/09/05 07:56:51;;;;;;;7.18;4.30;;;21.00;87.70;;;;;;5071759;28;20045;-72
2022/09/05 07:59:18;;;;;;;6.90;4.40;;;21.00;87.20;;;;;;5054444;28;20588;-71
2022/09/05 08:01:47;;;;;;;7.70;4.65;;;21.10;87.00;;;;;;5070913;28;20579;-72
2022/09/05 08:04:32;;;;;;;6.95;4.10;;;21.20;86.60;;;;;;5071827;28;20099;-72
2022/09/05 08:07:34;;;;;;;15.43;4.88;;;21.40;87.20;;;;;;5054374;28;20066;-72
2022/09/05 08:10:13;;;;;;;9.45;4.40;;;21.50;87.20;;;;;;5068291;28;20493;-72
2022/09/05 08:12:47;;;;;;;6.97;3.88;;;21.60;86.40;;;;;;5075010;28;20044;-72
2022/09/05 08:15:21;;;;;;;7.03;3.80;;;21.80;85.90;;;;;;5071989;28;20044;-72
2022/09/05 08:18:23;;;;;;;7.50;4.35;;;21.90;85.70;;;;;;5070891;28;20059;-72
2022/09/05 08:21:02;;;;;;;6.60;4.25;;;21.90;85.50;;;;;;5072850;28;20079;-72
2022/09/05 08:23:46;;;;;;;6.72;3.95;;;22.10;85.10;;;;;;5079418;28;20048;-72
2022/09/05 08:26:17;;;;;;;10.05;4.28;;;22.20;84.80;;;;;;5083648;28;20397;-72
2022/09/05 08:29:03;;;;;;;9.52;3.67;;;22.30;84.50;;;;;;5091561;28;20083;-73
2022/09/05 08:31:37;;;;;;;9.77;3.90;;;22.40;84.20;;;;;;5090891;28;20075;-73
2022/09/05 08:34:10;;;;;;;7.90;3.85;;;22.50;84.20;;;;;;5091544;28;20040;-73
2022/09/05 08:36:45;;;;;;;9.85;4.03;;;22.60;83.90;;;;;;5085311;28;20048;-73
2022/09/05 08:39:15;;;;;;;11.65;3.75;;;22.70;84.00;;;;;;5066690;28;20079;-73
2022/09/05 08:41:59;;;;;;;6.80;3.70;;;22.90;84.00;;;;;;5065576;28;20063;-73
2022/09/05 08:44:53;;;;;;;7.40;3.75;;;22.90;83.60;;;;;;5088709;28;20056;-73
2022/09/05 08:47:28;;;;;;;7.65;3.97;;;;;;;;;;5086531;28;20123;-73
2022/09/05 08:50:12;;;;;;;7.78;3.90;;;23.10;82.80;;;;;;5070810;28;20048;-73
2022/09/05 08:52:56;;;;;;;9.93;3.80;;;23.20;83.00;;;;;;5070948;28;20051;-73
2022/09/05 08:55:48;;;;;;;6.85;3.30;;;23.30;83.10;;;;;;5070788;28;20052;-73
2022/09/05 08:58:35;;;;;;;6.75;3.70;;;23.40;82.40;;;;;;5053664;28;20069;-73
2022/09/05 09:01:02;;;;;;;;;;;;;;;;;;5070439;28;20045;-73
2022/09/05 09:04:14;;;;;;;7.20;3.38;;;23.60;80.50;;;;;;5083757;28;20293;-73
2022/09/05 09:07:32;;;;;;;8.63;3.22;;;23.80;82.10;;;;;;5070730;28;20048;-71
2022/09/05 09:10:13;;;;;;;5.77;3.37;;;23.90;81.10;;;;;;5027157;28;20045;-73
2022/09/05 09:13:01;;;;;;;6.85;3.13;;;23.90;81.30;;;;;;5047580;28;20567;-74
2022/09/05 09:15:37;;;;;;;6.85;3.00;;;24.00;80.50;;;;;;5064225;28;20059;-72
2022/09/05 09:18:10;;;;;;;;;;;24.20;81.10;;;;;;5087838;28;20508;-70
2022/09/05 09:20:51;;;;;;;5.38;3.10;;;24.30;80.10;;;;;;5076099;28;20015;-69
2022/09/05 09:23:52;;;;;;;6.20;3.50;;;24.40;79.50;;;;;;5070300;28;20052;-69
2022/09/05 09:26:32;;;;;;;6.53;3.70;;;24.60;78.70;;;;;;5094649;28;20044;-70
2022/09/05 09:29:07;;;;;;;6.90;3.40;;;24.60;78.50;;;;;;5077604;28;20045;-69
2022/09/05 09:31:54;;;;;;;5.68;3.08;;;24.70;79.10;;;;;;5070485;28;20040;-69
2022/09/05 09:34:25;;;;;;;10.80;3.10;;;24.90;78.70;;;;;;5076683;28;20044;-70
2022/09/05 09:37:11;;;;;;;9.40;3.30;;;25.00;78.50;;;;;;5070082;28;20059;-68
2022/09/05 09:39:36;;;;;;;8.75;2.97;;;25.00;78.40;;;;;;5069185;28;20052;-68
2022/09/05 09:42:37;;;;;;;5.80;3.25;;;25.10;78.00;;;;;;5083518;28;21042;-71
2022/09/05 09:45:15;;;;;;;6.55;3.00;;;25.10;76.80;;;;;;5078962;28;20056;-70
2022/09/05 09:48:09;;;;;;;4.47;2.55;;;25.10;77.80;;;;;;5062728;28;20375;-73
2022/09/05 09:50:47;;;;;;;5.93;2.38;;;25.30;77.40;;;;;;5070405;28;20044;-71
2022/09/05 09:53:46;;;;;;;7.57;2.70;;;25.40;76.90;;;;;;5069616;28;20132;-69
2022/09/05 09:56:49;;;;;;;5.82;2.83;;;25.50;76.20;;;;;;5052188;28;20098;-69
2022/09/05 09:59:43;;;;;;;6.45;2.72;;;25.70;76.10;;;;;;5070203;28;20118;-69
2022/09/05 10:02:27;;;;;;;4.60;2.60;;;25.80;75.10;;;;;;5069088;28;20126;-71
2022/09/05 10:05:11;;;;;;;5.15;2.35;;;26.00;74.60;;;;;;5068271;28;20048;-71
2022/09/05 10:08:07;;;;;;;5.72;2.65;;;26.20;75.10;;;;;;5076045;28;20045;-72
2022/09/05 10:11:07;;;;;;;4.23;2.67;;;26.30;74.70;;;;;;5073306;28;20036;-69
2022/09/05 10:13:51;;;;;;;4.35;2.25;;;26.50;73.60;;;;;;5076003;28;20482;-69
2022/09/05 10:16:39;;;;;;;4.25;2.20;;;26.70;74.30;;;;;;5069309;28;20068;-68
2022/09/05 10:19:45;;;;;;;6.05;2.75;;;26.90;72.50;;;;;;5071910;28;20703;-69
2022/09/05 10:22:17;;;;;;;3.17;2.40;;;27.00;71.30;;;;;;5069910;28;20489;-70
2022/09/05 10:25:16;;;;;;;4.22;2.20;;;27.00;72.70;;;;;;5068782;28;20682;-75
2022/09/05 10:27:45;;;;;;;6.90;2.28;;;27.10;71.70;;;;;;5072405;28;20452;-71
2022/09/05 10:30:21;;;;;;;4.97;2.10;;;27.30;72.00;;;;;;5061024;28;20045;-72
2022/09/05 10:33:19;;;;;;;2.83;1.90;;;27.40;70.80;;;;;;5068725;28;20084;-72
2022/09/05 10:35:50;;;;;;;3.58;2.03;;;27.40;69.50;;;;;;5021223;28;20517;-74
2022/09/05 10:38:23;;;;;;;4.78;2.00;;;27.40;70.10;;;;;;5077035;28;20094;-71
2022/09/05 10:40:50;;;;;;;4.03;2.30;;;27.50;70.60;;;;;;5088563;28;20056;-71
2022/09/05 10:43:30;;;;;;;4.20;2.22;;;27.60;70.60;;;;;;5076836;28;20048;-71
2022/09/05 10:45:56;;;;;;;7.25;2.13;;;27.70;68.90;;;;;;5072193;28;20127;-71
2022/09/05 10:48:43;;;;;;;5.32;2.10;;;27.90;69.90;;;;;;5080288;28;20107;-72
2022/09/05 10:51:28;;;;;;;4.47;1.92;;;28.00;69.20;;;;;;5090493;28;20047;-73
2022/09/05 10:54:17;;;;;;;5.63;1.90;;;28.20;67.30;;;;;;5063186;28;20057;-73
2022/09/05 10:56:48;;;;;;;3.95;2.33;;;28.50;66.30;;;;;;5084004;28;20040;-73
2022/09/05 10:59:36;;;;;;;3.80;1.92;;;28.60;67.10;;;;;;5091617;28;20134;-72
2022/09/05 11:02:13;;;;;;;3.88;2.25;;;28.90;65.80;;;;;;5070592;28;20055;-73
2022/09/05 11:04:45;;;;;;;;;;;29.10;65.90;;;;;;5072093;28;20055;-72
2022/09/05 11:07:16;;;;;;;3.10;1.98;;;29.30;64.30;;;;;;5072116;28;20049;-73
2022/09/05 11:09:42;;;;;;;3.03;1.90;;;29.60;66.20;;;;;;5066383;28;20055;-72
2022/09/05 11:13:00;;;;;;;9.13;2.10;;;29.70;66.00;;;;;;5075114;28;20040;-72
2022/09/05 11:15:56;;;;;;;3.78;2.13;;;29.90;63.00;;;;;;4999897;28;20046;-72
2022/09/05 11:18:49;;;;;;;3.10;2.20;;;30.10;61.80;;;;;;4992304;28;20050;-72
2022/09/05 11:21:15;;;;;;;3.40;1.98;;;30.30;62.80;;;;;;5067212;28;20040;-73
2022/09/05 11:23:44;;;;;;;5.72;2.10;;;30.60;62.90;;;;;;5083169;28;20169;-73
2022/09/05 11:26:28;;;;;;;3.80;2.33;;;30.90;62.10;;;;;;5072089;28;20056;-74
2022/09/05 11:29:23;;;;;;;4.78;2.10;;;31.40;58.40;;;;;;5072332;28;20056;-73
2022/09/05 11:32:02;;;;;;;3.63;1.83;;;32.00;57.30;;;;;;5063100;28;20051;-75
2022/09/05 11:34:56;;;;;;;3.72;2.03;;;32.50;60.80;;;;;;5085324;28;20047;-72
2022/09/05 11:37:40;;;;;;;4.22;1.60;;;33.00;56.20;;;;;;5068931;28;20090;-73
2022/09/05 11:40:21;;;;;;;3.05;1.90;;;33.40;60.30;;;;;;5074890;28;20401;-74
2022/09/05 11:42:52;;;;;;;2.95;1.88;;;34.30;54.80;;;;;;5083855;28;20055;-73
2022/09/05 11:45:51;;;;;;;5.47;1.90;;;34.90;56.20;;;;;;5075539;28;20139;-74
2022/09/05 11:48:41;;;;;;;2.35;1.83;;;35.20;53.60;;;;;;5080361;28;20048;-74
2022/09/05 11:51:28;;;;;;;6.13;1.70;;;35.10;51.60;;;;;;5073285;28;20054;-73
2022/09/05 11:54:13;;;;;;;2.30;1.75;;;35.00;52.60;;;;;;5080602;28;20044;-75
2022/09/05 11:57:12;;;;;;;2.47;1.70;;;35.10;55.00;;;;;;5086389;28;20056;-74
2022/09/05 11:59:56;;;;;;;4.18;1.70;;;35.30;51.50;;;;;;5076286;28;20369;-73
2022/09/05 12:02:43;;;;;;;1.80;1.60;;;35.70;50.60;;;;;;5071239;28;20058;-73
2022/09/05 12:05:53;;;;;;;2.83;1.63;;;35.80;51.80;;;;;;5086549;28;20048;-75
2022/09/05 12:08:39;;;;;;;2.80;1.50;;;35.70;47.80;;;;;;4989247;28;20077;-73
2022/09/05 12:11:28;;;;;;;4.03;1.42;;;35.90;49.60;;;;;;4989158;28;20500;-74
2022/09/05 12:14:21;;;;;;;3.58;1.80;;;36.60;50.60;;;;;;5055073;28;20060;-75
2022/09/05 12:17:06;;;;;;;4.20;1.90;;;36.90;46.70;;;;;;5073932;28;20051;-73
2022/09/05 12:19:56;;;;;;;3.63;1.85;;;36.80;46.70;;;;;;5071770;28;20049;-73
2022/09/05 12:22:31;;;;;;;3.72;1.50;;;36.10;46.60;;;;;;5082479;28;20500;-73
2022/09/05 12:25:28;;;;;;;3.25;1.27;;;35.00;48.00;;;;;;5070118;28;20066;-73
2022/09/05 12:27:58;;;;;;;1.50;1.40;;;34.60;47.70;;;;;;5071324;28;20528;-74
2022/09/05 12:30:29;;;;;;;6.18;1.80;;;34.90;49.50;;;;;;5070849;28;20131;-74
2022/09/05 12:32:59;;;;;;;4.85;1.88;;;35.50;49.10;;;;;;5051650;28;20178;-75
2022/09/05 12:36:02;;;;;;;2.47;1.60;;;36.30;48.60;;;;;;5071440;28;20044;-73
2022/09/05 12:38:37;;;;;;;4.60;1.55;;;37.00;45.40;;;;;;5067727;28;20053;-73
2022/09/05 12:41:13;;;;;;;1.90;1.60;;;37.60;45.00;;;;;;5086797;28;20056;-73
2022/09/05 12:44:04;;;;;;;8.13;1.92;;;37.60;46.50;;;;;;5074792;28;20063;-73
2022/09/05 12:47:12;;;;;;;2.50;1.65;;;37.40;45.40;;;;;;5070329;28;20045;-73
2022/09/05 12:49:48;;;;;;;2.30;1.70;;;37.40;44.10;;;;;;5053431;28;20052;-74
2022/09/05 12:52:35;;;;;;;8.38;1.85;;;37.50;46.50;;;;;;5070638;28;20089;-74
2022/09/05 12:55:25;;;;;;;3.22;1.67;;;38.00;44.70;;;;;;5071296;28;20469;-74
2022/09/05 12:57:58;;;;;;;4.15;1.80;;;38.10;43.60;;;;;;5087051;28;20050;-74
2022/09/05 13:00:24;;;;;;;2.83;1.45;;;38.10;45.50;;;;;;5063719;28;20485;-74
2022/09/05 13:03:02;;;;;;;3.58;1.42;;;38.00;45.10;;;;;;5075694;28;20040;-75
2022/09/05 13:06:00;;;;;;;4.28;1.50;;;38.00;43.60;;;;;;5059699;28;20052;-75
2022/09/05 13:08:42;;;;;;;2.95;1.40;;;37.90;42.70;;;;;;5067454;28;20043;-74
2022/09/05 13:11:10;;;;;;;2.33;1.50;;;37.50;44.00;;;;;;5077651;28;20044;-75
2022/09/05 13:14:05;;;;;;;4.47;1.70;;;37.40;44.50;;;;;;5044974;28;21349;-75
2022/09/05 13:16:34;;;;;;;2.90;1.70;;;36.80;43.30;;;;;;5057535;28;20127;-76
2022/09/05 13:19:07;;;;;;;4.70;1.63;;;36.10;45.20;;;;;;5088790;28;20401;-74
2022/09/05 13:21:49;;;;;;;1.45;1.30;;;35.30;45.60;;;;;;5066152;28;20052;-73
2022/09/05 13:24:26;;;;;;;3.47;1.60;;;34.90;45.90;;;;;;5048009;28;20149;-74
2022/09/05 13:27:22;;;;;;;6.50;1.58;;;35.10;45.80;;;;;;5051639;28;20489;-73
2022/09/05 13:29:57;;;;;;;1.67;1.50;;;35.60;45.50;;;;;;5068410;28;20116;-74
2022/09/05 13:32:33;;;;;;;4.88;1.63;;;36.40;44.80;;;;;;5084328;28;20048;-74
2022/09/05 13:35:11;;;;;;;3.83;1.55;;;37.00;44.50;;;;;;5060441;28;20123;-74
2022/09/05 13:37:43;;;;;;;2.25;1.40;;;37.40;43.30;;;;;;5087558;28;20048;-74
2022/09/05 13:40:18;;;;;;;4.13;1.50;;;37.80;43.10;;;;;;5087068;28;20082;-73
2022/09/05 13:43:07;;;;;;;4.25;1.40;;;38.30;43.20;;;;;;5084885;28;20485;-73
2022/09/05 13:45:44;;;;;;;5.10;1.50;;;38.60;41.80;;;;;;5087370;28;20052;-73
2022/09/05 13:48:26;;;;;;;3.50;1.40;;;38.20;43.00;;;;;;5085160;28;20481;-74
2022/09/05 13:50:58;;;;;;;2.20;1.60;;;37.90;43.30;;;;;;5086288;28;20040;-73
2022/09/05 13:53:36;;;;;;;1.73;1.40;;;37.30;43.60;;;;;;5068479;28;20031;-73
2022/09/05 13:56:23;;;;;;;2.03;1.30;;;37.20;43.10;;;;;;5087695;28;20054;-73
2022/09/05 13:59:00;;;;;;;2.17;1.58;;;37.50;42.80;;;;;;5085558;28;20148;-73
2022/09/05 14:01:45;;;;;;;3.90;1.40;;;37.50;41.90;;;;;;5067859;28;20106;-74
2022/09/05 14:04:45;;;;;;;1.60;1.30;;;36.80;43.00;;;;;;5061630;28;20040;-72
2022/09/05 14:07:50;;;;;;;2.28;1.40;;;36.90;43.80;;;;;;5085138;28;20117;-74
2022/09/05 14:10:53;;;;;;;2.83;1.50;;;38.20;42.20;;;;;;5071718;28;20064;-74
2022/09/05 14:13:32;;;;;;;2.80;1.40;;;39.30;41.60;;;;;;5055979;28;20053;-73